sensor_id;sensor_type;location;lat;lon;timestamp;P1;P2;P0
77699;PMS5003;66867;42.658;23.320;2023-03-21T00:00:00;52;43;
77699;PMS5003;66867;42.658;23.320;2023-03-21T00:01:00;52;42;
77699;PMS5003;66867;42.658;23.320;2023-03-21T00:02:00;47;41;
77699;PMS5003;66867;42.658;23.320;2023-03-21T00:03:00;49;41;
77699;PMS5003;66867;42.658;23.320;2023-03-21T00:04:00;50;41;
77699;PMS5003;66867;42.658;23.320;2023-03-21T00:05:00;52;44;
77699;PMS5003;66867;42.658;23.320;2023-03-21T00:06:04;51;42;
77699;PMS5003;66867;42.658;23.320;2023-03-21T00:07:00;48;41;
77699;PMS5003;66867;42.658;23.320;2023-03-21T00:08:00;53;44;
77699;PMS5003;66867;42.658;23.320;2023-03-21T00:09:00;56;46;
77699;PMS5003;66867;42.658;23.320;2023-03-21T00:10:00;55;44;
77699;PMS5003;66867;42.658;23.320;2023-03-21T00:11:02;54;45;
77699;PMS5003;66867;42.658;23.320;2023-03-21T00:12:00;55;46;
77699;PMS5003;66867;42.658;23.320;2023-03-21T00:13:00;58;47;
77699;PMS5003;66867;42.658;23.320;2023-03-21T00:14:00;55;45;
77699;PMS5003;66867;42.658;23.320;2023-03-21T00:15:00;56;45;
77699;PMS5003;66867;42.658;23.320;2023-03-21T00:16:10;54;45;
77699;PMS5003;66867;42.658;23.320;2023-03-21T00:17:00;54;46;
77699;PMS5003;66867;42.658;23.320;2023-03-21T00:18:00;55;46;
77699;PMS5003;66867;42.658;23.320;2023-03-21T00:19:01;53;44;
77699;PMS5003;66867;42.658;23.320;2023-03-21T00:20:02;55;46;
77699;PMS5003;66867;42.658;23.320;2023-03-21T00:21:03;55;46;
77699;PMS5003;66867;42.658;23.320;2023-03-21T00:22:00;55;46;
77699;PMS5003;66867;42.658;23.320;2023-03-21T00:23:00;55;46;
77699;PMS5003;66867;42.658;23.320;2023-03-21T00:24:00;56;46;
77699;PMS5003;66867;42.658;23.320;2023-03-21T00:25:00;59;46;
77699;PMS5003;66867;42.658;23.320;2023-03-21T00:26:02;54;45;
77699;PMS5003;66867;42.658;23.320;2023-03-21T00:27:00;58;49;
77699;PMS5003;66867;42.658;23.320;2023-03-21T00:28:00;57;46;
77699;PMS5003;66867;42.658;23.320;2023-03-21T00:29:00;58;48;
77699;PMS5003;66867;42.658;23.320;2023-03-21T00:30:00;55;46;
77699;PMS5003;66867;42.658;23.320;2023-03-21T00:31:00;56;46;
77699;PMS5003;66867;42.658;23.320;2023-03-21T00:32:00;58;48;
77699;PMS5003;66867;42.658;23.320;2023-03-21T00:33:00;60;50;
77699;PMS5003;66867;42.658;23.320;2023-03-21T00:34:00;59;46;
77699;PMS5003;66867;42.658;23.320;2023-03-21T00:35:00;59;49;
77699;PMS5003;66867;42.658;23.320;2023-03-21T00:36:01;56;47;
77699;PMS5003;66867;42.658;23.320;2023-03-21T00:37:00;56;44;
77699;PMS5003;66867;42.658;23.320;2023-03-21T00:38:00;56;46;
77699;PMS5003;66867;42.658;23.320;2023-03-21T00:39:00;60;50;
77699;PMS5003;66867;42.658;23.320;2023-03-21T00:40:00;56;47;
77699;PMS5003;66867;42.658;23.320;2023-03-21T00:41:04;57;48;
77699;PMS5003;66867;42.658;23.320;2023-03-21T00:42:00;58;49;
77699;PMS5003;66867;42.658;23.320;2023-03-21T00:43:00;56;46;
77699;PMS5003;66867;42.658;23.320;2023-03-21T00:44:00;59;49;
77699;PMS5003;66867;42.658;23.320;2023-03-21T00:45:00;60;49;
77699;PMS5003;66867;42.658;23.320;2023-03-21T00:46:01;61;49;
77699;PMS5003;66867;42.658;23.320;2023-03-21T00:47:00;57;48;
77699;PMS5003;66867;42.658;23.320;2023-03-21T00:48:00;66;51;
77699;PMS5003;66867;42.658;23.320;2023-03-21T00:49:00;56;46;
77699;PMS5003;66867;42.658;23.320;2023-03-21T00:50:00;55;46;
77699;PMS5003;66867;42.658;23.320;2023-03-21T00:51:00;58;48;
77699;PMS5003;66867;42.658;23.320;2023-03-21T00:52:02;56;48;
77699;PMS5003;66867;42.658;23.320;2023-03-21T00:53:00;59;49;
77699;PMS5003;66867;42.658;23.320;2023-03-21T00:54:00;57;48;
77699;PMS5003;66867;42.658;23.320;2023-03-21T00:55:00;60;49;
77699;PMS5003;66867;42.658;23.320;2023-03-21T00:56:00;60;49;
77699;PMS5003;66867;42.658;23.320;2023-03-21T00:57:00;58;49;
77699;PMS5003;66867;42.658;23.320;2023-03-21T00:58:00;60;50;
77699;PMS5003;66867;42.658;23.320;2023-03-21T00:59:00;56;46;
77699;PMS5003;66867;42.658;23.320;2023-03-21T01:00:00;58;49;
77699;PMS5003;66867;42.658;23.320;2023-03-21T01:01:00;55;46;
77699;PMS5003;66867;42.658;23.320;2023-03-21T01:02:00;59;49;
77699;PMS5003;66867;42.658;23.320;2023-03-21T01:03:00;57;48;
77699;PMS5003;66867;42.658;23.320;2023-03-21T01:04:01;60;49;
77699;PMS5003;66867;42.658;23.320;2023-03-21T01:05:00;58;48;
77699;PMS5003;66867;42.658;23.320;2023-03-21T01:06:00;56;48;
77699;PMS5003;66867;42.658;23.320;2023-03-21T01:07:00;60;50;
77699;PMS5003;66867;42.658;23.320;2023-03-21T01:08:00;61;50;
77699;PMS5003;66867;42.658;23.320;2023-03-21T01:09:00;58;46;
77699;PMS5003;66867;42.658;23.320;2023-03-21T01:10:00;58;49;
77699;PMS5003;66867;42.658;23.320;2023-03-21T01:11:04;55;47;
77699;PMS5003;66867;42.658;23.320;2023-03-21T01:12:00;58;48;
77699;PMS5003;66867;42.658;23.320;2023-03-21T01:13:00;58;49;
77699;PMS5003;66867;42.658;23.320;2023-03-21T01:14:00;60;48;
77699;PMS5003;66867;42.658;23.320;2023-03-21T01:15:00;60;49;
77699;PMS5003;66867;42.658;23.320;2023-03-21T01:16:00;61;48;
77699;PMS5003;66867;42.658;23.320;2023-03-21T01:17:00;55;47;
77699;PMS5003;66867;42.658;23.320;2023-03-21T01:18:00;53;45;
77699;PMS5003;66867;42.658;23.320;2023-03-21T01:19:00;56;46;
77699;PMS5003;66867;42.658;23.320;2023-03-21T01:20:00;60;48;
77699;PMS5003;66867;42.658;23.320;2023-03-21T01:21:00;53;46;
77699;PMS5003;66867;42.658;23.320;2023-03-21T01:22:00;57;47;
77699;PMS5003;66867;42.658;23.320;2023-03-21T01:23:00;53;45;
77699;PMS5003;66867;42.658;23.320;2023-03-21T01:24:01;59;47;
77699;PMS5003;66867;42.658;23.320;2023-03-21T01:25:00;60;48;
77699;PMS5003;66867;42.658;23.320;2023-03-21T01:26:00;55;46;
77699;PMS5003;66867;42.658;23.320;2023-03-21T01:27:01;53;46;
77699;PMS5003;66867;42.658;23.320;2023-03-21T01:28:00;57;47;
77699;PMS5003;66867;42.658;23.320;2023-03-21T01:29:00;56;47;
77699;PMS5003;66867;42.658;23.320;2023-03-21T01:30:00;56;47;
77699;PMS5003;66867;42.658;23.320;2023-03-21T01:31:01;56;47;
77699;PMS5003;66867;42.658;23.320;2023-03-21T01:32:00;53;45;
77699;PMS5003;66867;42.658;23.320;2023-03-21T01:33:00;56;46;
77699;PMS5003;66867;42.658;23.320;2023-03-21T01:34:00;56;46;
77699;PMS5003;66867;42.658;23.320;2023-03-21T01:35:00;56;46;
77699;PMS5003;66867;42.658;23.320;2023-03-21T01:36:00;56;46;
77699;PMS5003;66867;42.658;23.320;2023-03-21T01:37:00;55;45;
77699;PMS5003;66867;42.658;23.320;2023-03-21T01:38:00;57;48;
77699;PMS5003;66867;42.658;23.320;2023-03-21T01:39:00;59;48;
77699;PMS5003;66867;42.658;23.320;2023-03-21T01:40:01;57;47;
77699;PMS5003;66867;42.658;23.320;2023-03-21T01:41:00;61;49;
77699;PMS5003;66867;42.658;23.320;2023-03-21T01:42:00;57;47;
77699;PMS5003;66867;42.658;23.320;2023-03-21T01:43:00;57;47;
77699;PMS5003;66867;42.658;23.320;2023-03-21T01:44:00;57;47;
77699;PMS5003;66867;42.658;23.320;2023-03-21T01:45:04;58;48;
77699;PMS5003;66867;42.658;23.320;2023-03-21T01:47:00;60;49;
77699;PMS5003;66867;42.658;23.320;2023-03-21T01:48:00;55;46;
77699;PMS5003;66867;42.658;23.320;2023-03-21T01:50:02;58;48;
77699;PMS5003;66867;42.658;23.320;2023-03-21T01:51:00;60;49;
77699;PMS5003;66867;42.658;23.320;2023-03-21T01:52:03;57;48;
77699;PMS5003;66867;42.658;23.320;2023-03-21T01:53:00;54;46;
77699;PMS5003;66867;42.658;23.320;2023-03-21T01:54:00;60;49;
77699;PMS5003;66867;42.658;23.320;2023-03-21T01:55:01;58;48;
77699;PMS5003;66867;42.658;23.320;2023-03-21T01:56:05;55;46;
77699;PMS5003;66867;42.658;23.320;2023-03-21T01:57:04;59;48;
77699;PMS5003;66867;42.658;23.320;2023-03-21T01:58:01;56;47;
77699;PMS5003;66867;42.658;23.320;2023-03-21T01:59:04;57;47;
77699;PMS5003;66867;42.658;23.320;2023-03-21T02:00:02;54;46;
77699;PMS5003;66867;42.658;23.320;2023-03-21T02:01:01;56;46;
77699;PMS5003;66867;42.658;23.320;2023-03-21T02:02:03;58;47;
77699;PMS5003;66867;42.658;23.320;2023-03-21T02:03:07;53;44;
77699;PMS5003;66867;42.658;23.320;2023-03-21T02:04:00;52;44;
77699;PMS5003;66867;42.658;23.320;2023-03-21T02:05:01;57;47;
77699;PMS5003;66867;42.658;23.320;2023-03-21T02:06:04;48;42;
77699;PMS5003;66867;42.658;23.320;2023-03-21T02:07:07;50;42;
77699;PMS5003;66867;42.658;23.320;2023-03-21T02:08:00;52;43;
77699;PMS5003;66867;42.658;23.320;2023-03-21T02:09:03;55;45;
77699;PMS5003;66867;42.658;23.320;2023-03-21T02:10:03;54;45;
77699;PMS5003;66867;42.658;23.320;2023-03-21T02:11:00;56;44;
77699;PMS5003;66867;42.658;23.320;2023-03-21T02:12:00;53;44;
77699;PMS5003;66867;42.658;23.320;2023-03-21T02:13:03;51;43;
77699;PMS5003;66867;42.658;23.320;2023-03-21T02:14:00;51;42;
77699;PMS5003;66867;42.658;23.320;2023-03-21T02:15:00;52;42;
77699;PMS5003;66867;42.658;23.320;2023-03-21T02:16:05;49;42;
77699;PMS5003;66867;42.658;23.320;2023-03-21T02:17:10;53;44;
77699;PMS5003;66867;42.658;23.320;2023-03-21T02:18:02;54;45;
77699;PMS5003;66867;42.658;23.320;2023-03-21T02:22:06;49;42;
77699;PMS5003;66867;42.658;23.320;2023-03-21T02:24:08;54;44;
77699;PMS5003;66867;42.658;23.320;2023-03-21T02:27:12;53;43;
77699;PMS5003;66867;42.658;23.320;2023-03-21T02:28:06;50;42;
77699;PMS5003;66867;42.658;23.320;2023-03-21T02:29:06;48;42;
77699;PMS5003;66867;42.658;23.320;2023-03-21T02:38:04;52;43;
77699;PMS5003;66867;42.658;23.320;2023-03-21T02:41:11;47;41;
77699;PMS5003;66867;42.658;23.320;2023-03-21T02:43:09;52;44;
77699;PMS5003;66867;42.658;23.320;2023-03-21T02:45:08;52;43;
77699;PMS5003;66867;42.658;23.320;2023-03-21T02:47:01;55;45;
77699;PMS5003;66867;42.658;23.320;2023-03-21T02:48:05;51;43;
77699;PMS5003;66867;42.658;23.320;2023-03-21T02:49:11;51;42;
77699;PMS5003;66867;42.658;23.320;2023-03-21T02:50:08;53;45;
77699;PMS5003;66867;42.658;23.320;2023-03-21T02:51:01;51;42;
77699;PMS5003;66867;42.658;23.320;2023-03-21T02:52:01;53;44;
77699;PMS5003;66867;42.658;23.320;2023-03-21T02:53:01;49;42;
77699;PMS5003;66867;42.658;23.320;2023-03-21T02:54:03;53;45;
77699;PMS5003;66867;42.658;23.320;2023-03-21T02:55:01;52;43;
77699;PMS5003;66867;42.658;23.320;2023-03-21T02:56:00;49;42;
77699;PMS5003;66867;42.658;23.320;2023-03-21T02:57:01;48;40;
77699;PMS5003;66867;42.658;23.320;2023-03-21T02:58:01;51;43;
77699;PMS5003;66867;42.658;23.320;2023-03-21T02:59:01;50;42;
77699;PMS5003;66867;42.658;23.320;2023-03-21T03:00:01;52;45;
77699;PMS5003;66867;42.658;23.320;2023-03-21T03:01:00;51;42;
77699;PMS5003;66867;42.658;23.320;2023-03-21T03:02:01;49;42;
77699;PMS5003;66867;42.658;23.320;2023-03-21T03:03:00;49;41;
77699;PMS5003;66867;42.658;23.320;2023-03-21T03:04:00;49;41;
77699;PMS5003;66867;42.658;23.320;2023-03-21T03:05:00;52;43;
77699;PMS5003;66867;42.658;23.320;2023-03-21T03:06:01;48;40;
77699;PMS5003;66867;42.658;23.320;2023-03-21T03:11:11;51;43;
77699;PMS5003;66867;42.658;23.320;2023-03-21T03:12:11;53;44;
77699;PMS5003;66867;42.658;23.320;2023-03-21T03:19:01;49;41;
77699;PMS5003;66867;42.658;23.320;2023-03-21T03:22:09;48;40;
77699;PMS5003;66867;42.658;23.320;2023-03-21T03:24:02;51;43;
77699;PMS5003;66867;42.658;23.320;2023-03-21T03:25:04;49;42;
77699;PMS5003;66867;42.658;23.320;2023-03-21T03:26:06;51;43;
77699;PMS5003;66867;42.658;23.320;2023-03-21T03:27:06;51;44;
77699;PMS5003;66867;42.658;23.320;2023-03-21T03:28:03;52;44;
77699;PMS5003;66867;42.658;23.320;2023-03-21T03:29:04;51;44;
77699;PMS5003;66867;42.658;23.320;2023-03-21T03:30:01;50;44;
77699;PMS5003;66867;42.658;23.320;2023-03-21T03:31:00;52;43;
77699;PMS5003;66867;42.658;23.320;2023-03-21T03:32:04;52;44;
77699;PMS5003;66867;42.658;23.320;2023-03-21T03:33:01;52;44;
77699;PMS5003;66867;42.658;23.320;2023-03-21T03:34:04;50;43;
77699;PMS5003;66867;42.658;23.320;2023-03-21T03:35:01;50;42;
77699;PMS5003;66867;42.658;23.320;2023-03-21T03:36:01;49;42;
77699;PMS5003;66867;42.658;23.320;2023-03-21T03:37:02;49;43;
77699;PMS5003;66867;42.658;23.320;2023-03-21T03:38:04;53;44;
77699;PMS5003;66867;42.658;23.320;2023-03-21T03:39:03;50;43;
77699;PMS5003;66867;42.658;23.320;2023-03-21T03:40:19;58;45;
77699;PMS5003;66867;42.658;23.320;2023-03-21T03:41:03;58;47;
77699;PMS5003;66867;42.658;23.320;2023-03-21T03:42:05;56;47;
77699;PMS5003;66867;42.658;23.320;2023-03-21T03:43:04;51;42;
77699;PMS5003;66867;42.658;23.320;2023-03-21T03:44:01;51;43;
77699;PMS5003;66867;42.658;23.320;2023-03-21T03:45:01;49;42;
77699;PMS5003;66867;42.658;23.320;2023-03-21T03:46:07;52;42;
77699;PMS5003;66867;42.658;23.320;2023-03-21T03:48:29;46;38;
77699;PMS5003;66867;42.658;23.320;2023-03-21T03:49:03;46;40;
77699;PMS5003;66867;42.658;23.320;2023-03-21T03:51:07;49;42;
77699;PMS5003;66867;42.658;23.320;2023-03-21T03:52:03;41;38;
77699;PMS5003;66867;42.658;23.320;2023-03-21T03:53:05;44;38;
77699;PMS5003;66867;42.658;23.320;2023-03-21T03:54:05;48;39;
77699;PMS5003;66867;42.658;23.320;2023-03-21T03:55:00;41;37;
77699;PMS5003;66867;42.658;23.320;2023-03-21T03:56:01;41;37;
77699;PMS5003;66867;42.658;23.320;2023-03-21T03:57:01;46;39;
77699;PMS5003;66867;42.658;23.320;2023-03-21T03:58:00;44;38;
77699;PMS5003;66867;42.658;23.320;2023-03-21T03:59:02;43;38;
77699;PMS5003;66867;42.658;23.320;2023-03-21T04:00:00;45;38;
77699;PMS5003;66867;42.658;23.320;2023-03-21T04:01:00;45;39;
77699;PMS5003;66867;42.658;23.320;2023-03-21T04:02:00;45;38;
77699;PMS5003;66867;42.658;23.320;2023-03-21T04:03:00;47;41;
77699;PMS5003;66867;42.658;23.320;2023-03-21T04:04:00;45;38;
77699;PMS5003;66867;42.658;23.320;2023-03-21T04:05:00;45;38;
77699;PMS5003;66867;42.658;23.320;2023-03-21T04:06:00;44;40;
77699;PMS5003;66867;42.658;23.320;2023-03-21T04:07:00;46;38;
77699;PMS5003;66867;42.658;23.320;2023-03-21T04:08:00;49;41;
77699;PMS5003;66867;42.658;23.320;2023-03-21T04:09:00;49;41;
77699;PMS5003;66867;42.658;23.320;2023-03-21T04:10:00;45;39;
77699;PMS5003;66867;42.658;23.320;2023-03-21T04:11:00;42;37;
77699;PMS5003;66867;42.658;23.320;2023-03-21T04:12:00;50;42;
77699;PMS5003;66867;42.658;23.320;2023-03-21T04:13:00;44;40;
77699;PMS5003;66867;42.658;23.320;2023-03-21T04:14:00;41;38;
77699;PMS5003;66867;42.658;23.320;2023-03-21T04:15:00;50;43;
77699;PMS5003;66867;42.658;23.320;2023-03-21T04:16:00;50;42;
77699;PMS5003;66867;42.658;23.320;2023-03-21T04:17:00;48;38;
77699;PMS5003;66867;42.658;23.320;2023-03-21T04:18:00;47;40;
77699;PMS5003;66867;42.658;23.320;2023-03-21T04:19:00;50;41;
77699;PMS5003;66867;42.658;23.320;2023-03-21T04:20:00;53;44;
77699;PMS5003;66867;42.658;23.320;2023-03-21T04:21:00;44;40;
77699;PMS5003;66867;42.658;23.320;2023-03-21T04:22:00;45;39;
77699;PMS5003;66867;42.658;23.320;2023-03-21T04:23:00;48;41;
77699;PMS5003;66867;42.658;23.320;2023-03-21T04:24:00;43;39;
77699;PMS5003;66867;42.658;23.320;2023-03-21T04:25:00;46;39;
77699;PMS5003;66867;42.658;23.320;2023-03-21T04:26:00;42;39;
77699;PMS5003;66867;42.658;23.320;2023-03-21T04:27:00;37;33;
77699;PMS5003;66867;42.658;23.320;2023-03-21T04:28:00;43;39;
77699;PMS5003;66867;42.658;23.320;2023-03-21T04:29:01;41;37;
77699;PMS5003;66867;42.658;23.320;2023-03-21T04:30:00;45;38;
77699;PMS5003;66867;42.658;23.320;2023-03-21T04:31:00;44;39;
77699;PMS5003;66867;42.658;23.320;2023-03-21T04:32:00;41;36;
77699;PMS5003;66867;42.658;23.320;2023-03-21T04:33:00;46;40;
77699;PMS5003;66867;42.658;23.320;2023-03-21T04:34:02;44;38;
77699;PMS5003;66867;42.658;23.320;2023-03-21T04:35:00;44;39;
77699;PMS5003;66867;42.658;23.320;2023-03-21T04:36:00;48;39;
77699;PMS5003;66867;42.658;23.320;2023-03-21T04:37:00;44;39;
77699;PMS5003;66867;42.658;23.320;2023-03-21T04:38:00;45;39;
77699;PMS5003;66867;42.658;23.320;2023-03-21T04:39:00;46;39;
77699;PMS5003;66867;42.658;23.320;2023-03-21T04:40:02;46;39;
77699;PMS5003;66867;42.658;23.320;2023-03-21T04:41:01;44;38;
77699;PMS5003;66867;42.658;23.320;2023-03-21T04:42:00;43;36;
77699;PMS5003;66867;42.658;23.320;2023-03-21T04:43:00;42;37;
77699;PMS5003;66867;42.658;23.320;2023-03-21T04:44:00;44;39;
77699;PMS5003;66867;42.658;23.320;2023-03-21T04:45:01;47;40;
77699;PMS5003;66867;42.658;23.320;2023-03-21T04:46:00;44;38;
77699;PMS5003;66867;42.658;23.320;2023-03-21T04:47:00;48;41;
77699;PMS5003;66867;42.658;23.320;2023-03-21T04:48:00;54;44;
77699;PMS5003;66867;42.658;23.320;2023-03-21T04:49:00;55;44;
77699;PMS5003;66867;42.658;23.320;2023-03-21T04:50:00;62;50;
77699;PMS5003;66867;42.658;23.320;2023-03-21T04:51:00;59;48;
77699;PMS5003;66867;42.658;23.320;2023-03-21T04:52:00;60;49;
77699;PMS5003;66867;42.658;23.320;2023-03-21T04:53:00;64;52;
77699;PMS5003;66867;42.658;23.320;2023-03-21T04:54:00;56;47;
77699;PMS5003;66867;42.658;23.320;2023-03-21T04:55:00;54;45;
77699;PMS5003;66867;42.658;23.320;2023-03-21T04:56:00;51;43;
77699;PMS5003;66867;42.658;23.320;2023-03-21T04:57:00;47;41;
77699;PMS5003;66867;42.658;23.320;2023-03-21T04:58:00;51;43;
77699;PMS5003;66867;42.658;23.320;2023-03-21T04:59:03;50;42;
77699;PMS5003;66867;42.658;23.320;2023-03-21T05:00:00;49;42;
77699;PMS5003;66867;42.658;23.320;2023-03-21T05:01:00;50;43;
77699;PMS5003;66867;42.658;23.320;2023-03-21T05:02:00;50;42;
77699;PMS5003;66867;42.658;23.320;2023-03-21T05:03:00;50;42;
77699;PMS5003;66867;42.658;23.320;2023-03-21T05:04:01;55;45;
77699;PMS5003;66867;42.658;23.320;2023-03-21T05:05:00;58;46;
77699;PMS5003;66867;42.658;23.320;2023-03-21T05:06:00;52;43;
77699;PMS5003;66867;42.658;23.320;2023-03-21T05:07:00;49;42;
77699;PMS5003;66867;42.658;23.320;2023-03-21T05:08:00;51;42;
77699;PMS5003;66867;42.658;23.320;2023-03-21T05:09:02;50;42;
77699;PMS5003;66867;42.658;23.320;2023-03-21T05:10:00;49;42;
77699;PMS5003;66867;42.658;23.320;2023-03-21T05:11:00;48;40;
77699;PMS5003;66867;42.658;23.320;2023-03-21T05:12:00;45;40;
77699;PMS5003;66867;42.658;23.320;2023-03-21T05:13:00;52;45;
77699;PMS5003;66867;42.658;23.320;2023-03-21T05:14:00;52;45;
77699;PMS5003;66867;42.658;23.320;2023-03-21T05:15:00;54;45;
77699;PMS5003;66867;42.658;23.320;2023-03-21T05:16:00;50;42;
77699;PMS5003;66867;42.658;23.320;2023-03-21T05:17:00;50;42;
77699;PMS5003;66867;42.658;23.320;2023-03-21T05:18:00;55;46;
77699;PMS5003;66867;42.658;23.320;2023-03-21T05:19:01;52;43;
77699;PMS5003;66867;42.658;23.320;2023-03-21T05:20:00;52;42;
77699;PMS5003;66867;42.658;23.320;2023-03-21T05:21:00;50;43;
77699;PMS5003;66867;42.658;23.320;2023-03-21T05:22:01;55;44;
77699;PMS5003;66867;42.658;23.320;2023-03-21T05:23:00;55;46;
77699;PMS5003;66867;42.658;23.320;2023-03-21T05:24:00;49;41;
77699;PMS5003;66867;42.658;23.320;2023-03-21T05:25:00;51;42;
77699;PMS5003;66867;42.658;23.320;2023-03-21T05:26:00;52;45;
77699;PMS5003;66867;42.658;23.320;2023-03-21T05:27:00;50;42;
77699;PMS5003;66867;42.658;23.320;2023-03-21T05:28:00;50;42;
77699;PMS5003;66867;42.658;23.320;2023-03-21T05:29:00;48;40;
77699;PMS5003;66867;42.658;23.320;2023-03-21T05:30:03;54;45;
77699;PMS5003;66867;42.658;23.320;2023-03-21T05:31:01;56;46;
77699;PMS5003;66867;42.658;23.320;2023-03-21T05:32:00;56;46;
77699;PMS5003;66867;42.658;23.320;2023-03-21T05:33:00;50;42;
77699;PMS5003;66867;42.658;23.320;2023-03-21T05:34:00;50;43;
77699;PMS5003;66867;42.658;23.320;2023-03-21T05:35:01;55;46;
77699;PMS5003;66867;42.658;23.320;2023-03-21T05:36:00;52;45;
77699;PMS5003;66867;42.658;23.320;2023-03-21T05:37:00;51;42;
77699;PMS5003;66867;42.658;23.320;2023-03-21T05:38:00;52;43;
77699;PMS5003;66867;42.658;23.320;2023-03-21T05:39:01;47;40;
77699;PMS5003;66867;42.658;23.320;2023-03-21T05:40:00;55;45;
77699;PMS5003;66867;42.658;23.320;2023-03-21T05:41:00;47;41;
77699;PMS5003;66867;42.658;23.320;2023-03-21T05:42:00;48;40;
77699;PMS5003;66867;42.658;23.320;2023-03-21T05:43:00;52;44;
77699;PMS5003;66867;42.658;23.320;2023-03-21T05:44:00;52;43;
77699;PMS5003;66867;42.658;23.320;2023-03-21T05:45:00;52;44;
77699;PMS5003;66867;42.658;23.320;2023-03-21T05:46:00;50;43;
77699;PMS5003;66867;42.658;23.320;2023-03-21T05:47:00;49;41;
77699;PMS5003;66867;42.658;23.320;2023-03-21T05:48:00;55;44;
77699;PMS5003;66867;42.658;23.320;2023-03-21T05:49:00;52;43;
77699;PMS5003;66867;42.658;23.320;2023-03-21T05:50:00;55;45;
77699;PMS5003;66867;42.658;23.320;2023-03-21T05:51:00;55;46;
77699;PMS5003;66867;42.658;23.320;2023-03-21T05:52:00;55;48;
77699;PMS5003;66867;42.658;23.320;2023-03-21T05:53:00;56;47;
77699;PMS5003;66867;42.658;23.320;2023-03-21T05:54:00;53;45;
77699;PMS5003;66867;42.658;23.320;2023-03-21T05:55:00;54;45;
77699;PMS5003;66867;42.658;23.320;2023-03-21T05:56:00;52;44;
77699;PMS5003;66867;42.658;23.320;2023-03-21T05:57:00;57;46;
77699;PMS5003;66867;42.658;23.320;2023-03-21T05:58:00;55;46;
77699;PMS5003;66867;42.658;23.320;2023-03-21T05:59:00;54;45;
77699;PMS5003;66867;42.658;23.320;2023-03-21T06:00:00;54;45;
77699;PMS5003;66867;42.658;23.320;2023-03-21T06:01:00;55;47;
77699;PMS5003;66867;42.658;23.320;2023-03-21T06:02:00;54;46;
77699;PMS5003;66867;42.658;23.320;2023-03-21T06:03:00;58;48;
77699;PMS5003;66867;42.658;23.320;2023-03-21T06:04:00;53;44;
77699;PMS5003;66867;42.658;23.320;2023-03-21T06:05:00;54;46;
77699;PMS5003;66867;42.658;23.320;2023-03-21T06:06:00;56;47;
77699;PMS5003;66867;42.658;23.320;2023-03-21T06:07:00;57;47;
77699;PMS5003;66867;42.658;23.320;2023-03-21T06:08:00;58;48;
77699;PMS5003;66867;42.658;23.320;2023-03-21T06:09:00;60;49;
77699;PMS5003;66867;42.658;23.320;2023-03-21T06:10:00;60;48;
77699;PMS5003;66867;42.658;23.320;2023-03-21T06:11:00;58;49;
77699;PMS5003;66867;42.658;23.320;2023-03-21T06:12:00;58;48;
77699;PMS5003;66867;42.658;23.320;2023-03-21T06:13:00;54;45;
77699;PMS5003;66867;42.658;23.320;2023-03-21T06:14:00;57;48;
77699;PMS5003;66867;42.658;23.320;2023-03-21T06:15:00;57;47;
77699;PMS5003;66867;42.658;23.320;2023-03-21T06:16:00;60;48;
77699;PMS5003;66867;42.658;23.320;2023-03-21T06:17:00;56;46;
77699;PMS5003;66867;42.658;23.320;2023-03-21T06:18:00;56;46;
77699;PMS5003;66867;42.658;23.320;2023-03-21T06:19:00;53;45;
77699;PMS5003;66867;42.658;23.320;2023-03-21T06:26:00;56;48;
77699;PMS5003;66867;42.658;23.320;2023-03-21T06:27:00;57;48;
77699;PMS5003;66867;42.658;23.320;2023-03-21T06:29:00;53;44;
77699;PMS5003;66867;42.658;23.320;2023-03-21T06:30:00;53;44;
77699;PMS5003;66867;42.658;23.320;2023-03-21T06:33:00;59;50;
77699;PMS5003;66867;42.658;23.320;2023-03-21T06:34:00;60;50;
77699;PMS5003;66867;42.658;23.320;2023-03-21T06:35:00;59;49;
77699;PMS5003;66867;42.658;23.320;2023-03-21T06:36:00;61;51;
77699;PMS5003;66867;42.658;23.320;2023-03-21T06:37:00;59;49;
77699;PMS5003;66867;42.658;23.320;2023-03-21T06:38:00;61;49;
77699;PMS5003;66867;42.658;23.320;2023-03-21T06:39:00;61;49;
77699;PMS5003;66867;42.658;23.320;2023-03-21T06:40:00;60;50;
77699;PMS5003;66867;42.658;23.320;2023-03-21T06:47:00;60;49;
77699;PMS5003;66867;42.658;23.320;2023-03-21T06:48:00;55;46;
77699;PMS5003;66867;42.658;23.320;2023-03-21T06:49:00;59;48;
77699;PMS5003;66867;42.658;23.320;2023-03-21T06:50:00;57;47;
77699;PMS5003;66867;42.658;23.320;2023-03-21T06:51:00;61;49;
77699;PMS5003;66867;42.658;23.320;2023-03-21T06:52:00;58;49;
77699;PMS5003;66867;42.658;23.320;2023-03-21T06:53:00;57;48;
77699;PMS5003;66867;42.658;23.320;2023-03-21T06:54:00;57;46;
77699;PMS5003;66867;42.658;23.320;2023-03-21T06:55:00;56;46;
77699;PMS5003;66867;42.658;23.320;2023-03-21T06:56:00;53;44;
77699;PMS5003;66867;42.658;23.320;2023-03-21T06:57:00;52;43;
77699;PMS5003;66867;42.658;23.320;2023-03-21T06:58:00;55;46;
77699;PMS5003;66867;42.658;23.320;2023-03-21T06:59:00;49;42;
77699;PMS5003;66867;42.658;23.320;2023-03-21T07:00:00;51;43;
77699;PMS5003;66867;42.658;23.320;2023-03-21T07:01:01;48;40;
77699;PMS5003;66867;42.658;23.320;2023-03-21T07:02:00;41;37;
77699;PMS5003;66867;42.658;23.320;2023-03-21T07:03:00;49;42;
77699;PMS5003;66867;42.658;23.320;2023-03-21T07:04:00;47;41;
77699;PMS5003;66867;42.658;23.320;2023-03-21T07:05:00;46;40;
77699;PMS5003;66867;42.658;23.320;2023-03-21T07:06:05;38;34;
77699;PMS5003;66867;42.658;23.320;2023-03-21T07:07:00;47;41;
77699;PMS5003;66867;42.658;23.320;2023-03-21T07:08:00;45;37;
77699;PMS5003;66867;42.658;23.320;2023-03-21T07:09:00;43;36;
77699;PMS5003;66867;42.658;23.320;2023-03-21T07:10:00;43;37;
77699;PMS5003;66867;42.658;23.320;2023-03-21T07:11:00;40;36;
77699;PMS5003;66867;42.658;23.320;2023-03-21T07:12:00;46;39;
77699;PMS5003;66867;42.658;23.320;2023-03-21T07:13:00;49;39;
77699;PMS5003;66867;42.658;23.320;2023-03-21T07:14:00;47;39;
77699;PMS5003;66867;42.658;23.320;2023-03-21T07:15:01;41;36;
77699;PMS5003;66867;42.658;23.320;2023-03-21T07:16:00;46;39;
77699;PMS5003;66867;42.658;23.320;2023-03-21T07:17:00;39;34;
77699;PMS5003;66867;42.658;23.320;2023-03-21T07:18:00;40;36;
77699;PMS5003;66867;42.658;23.320;2023-03-21T07:19:00;44;38;
77699;PMS5003;66867;42.658;23.320;2023-03-21T07:20:00;41;35;
77699;PMS5003;66867;42.658;23.320;2023-03-21T07:21:00;40;35;
77699;PMS5003;66867;42.658;23.320;2023-03-21T07:22:00;39;35;